createdAt,value
2022-08-23T00:01:24.331Z,2.03
2022-08-23T00:03:53.488Z,2.22
2022-08-23T00:06:21.491Z,2.00
2022-08-23T00:08:49.148Z,2.30
2022-08-23T00:11:38.351Z,2.25
2022-08-23T00:14:27.783Z,2.30
2022-08-23T00:16:56.338Z,2.03
2022-08-23T00:19:24.102Z,2.10
2022-08-23T00:21:52.589Z,2.05
2022-08-23T00:24:19.460Z,2.08
2022-08-23T00:26:51.082Z,2.65
2022-08-23T00:31:45.330Z,2.00
2022-08-23T00:34:12.504Z,2.50
2022-08-23T00:36:40.056Z,2.30
2022-08-23T00:39:06.828Z,2.00
2022-08-23T00:41:35.014Z,2.30
2022-08-23T00:44:21.343Z,2.40
2022-08-23T00:47:12.997Z,2.63
2022-08-23T00:49:43.088Z,2.70
2022-08-23T00:52:32.338Z,2.55
2022-08-23T00:55:00.114Z,2.55
2022-08-23T00:57:27.722Z,2.80
2022-08-23T00:59:54.358Z,1.70
2022-08-23T01:02:20.947Z,2.97
2022-08-23T01:04:56.790Z,2.33
2022-08-23T01:07:46.652Z,2.20
2022-08-23T01:10:27.750Z,2.50
2022-08-23T01:13:01.024Z,2.58
2022-08-23T01:15:36.406Z,3.33
2022-08-23T01:18:09.447Z,2.50
2022-08-23T01:20:49.312Z,2.60
2022-08-23T01:23:31.402Z,2.45
2022-08-23T01:25:58.537Z,2.30
2022-08-23T01:28:25.334Z,2.53
2022-08-23T01:30:52.174Z,2.22
2022-08-23T01:33:19.603Z,2.60
2022-08-23T01:35:53.683Z,2.30
2022-08-23T01:38:21.116Z,2.10
2022-08-23T01:40:48.910Z,2.08
2022-08-23T01:43:19.718Z,2.03
2022-08-23T01:45:47.452Z,2.10
2022-08-23T01:48:15.202Z,2.05
2022-08-23T01:50:42.102Z,1.95
2022-08-23T01:53:09.484Z,1.90
2022-08-23T01:55:36.728Z,2.22
2022-08-23T01:58:05.470Z,2.35
2022-08-23T02:00:35.851Z,2.30
2022-08-23T02:03:02.678Z,2.10
2022-08-23T02:05:30.741Z,2.20
2022-08-23T02:08:17.373Z,2.42
2022-08-23T02:10:44.407Z,2.53
2022-08-23T02:13:10.963Z,2.40
2022-08-23T02:15:39.914Z,2.60
2022-08-23T02:18:06.594Z,2.63
2022-08-23T02:20:33.204Z,2.75
2022-08-23T02:22:59.886Z,3.22
2022-08-23T02:25:26.522Z,2.70
2022-08-23T02:27:53.011Z,2.92
2022-08-23T02:30:19.565Z,2.85
2022-08-23T02:32:46.125Z,2.70
2022-08-23T02:35:14.732Z,2.90
2022-08-23T02:37:41.262Z,2.67
2022-08-23T02:40:08.396Z,3.03
2022-08-23T02:42:35.203Z,3.00
2022-08-23T02:45:01.847Z,2.58
2022-08-23T02:47:28.369Z,2.17
2022-08-23T02:49:54.916Z,2.80
2022-08-23T02:52:21.435Z,2.90
2022-08-23T02:54:47.967Z,2.78
2022-08-23T02:57:14.491Z,2.72
2022-08-23T02:59:41.130Z,3.17
2022-08-23T03:02:08.580Z,3.08
2022-08-23T03:04:35.176Z,2.92
2022-08-23T03:07:01.707Z,3.38
2022-08-23T03:09:28.404Z,3.28
2022-08-23T03:11:55.253Z,2.60
2022-08-23T03:14:22.162Z,2.90
2022-08-23T03:16:49.170Z,3.20
2022-08-23T03:19:15.693Z,2.75
2022-08-23T03:21:43.493Z,3.13
2022-08-23T03:24:11.511Z,3.00
2022-08-23T03:26:41.413Z,3.08
2022-08-23T03:29:07.913Z,3.25
2022-08-23T03:31:34.425Z,2.60
2022-08-23T03:34:01.043Z,2.47
2022-08-23T03:36:28.317Z,3.40
2022-08-23T03:38:55.534Z,3.50
2022-08-23T03:41:22.709Z,3.15
2022-08-23T03:43:49.583Z,2.78
2022-08-23T03:46:23.685Z,3.17
2022-08-23T03:48:52.249Z,3.25
2022-08-23T03:51:20.310Z,2.60
2022-08-23T03:53:47.966Z,2.70
2022-08-23T03:56:34.177Z,2.53
2022-08-23T03:59:04.234Z,2.80
2022-08-23T04:01:30.813Z,2.40
2022-08-23T04:04:00.596Z,2.58
2022-08-23T04:06:28.064Z,2.40
2022-08-23T04:08:55.094Z,2.00
2022-08-23T04:11:22.696Z,2.53
2022-08-23T04:13:49.838Z,2.65
2022-08-23T04:16:18.957Z,2.30
2022-08-23T04:18:46.343Z,2.10
2022-08-23T04:21:19.836Z,2.13
2022-08-23T04:23:46.353Z,2.00
2022-08-23T04:26:12.931Z,2.20
2022-08-23T04:28:40.288Z,1.73
2022-08-23T04:31:07.292Z,1.95
2022-08-23T04:33:35.616Z,2.00
2022-08-23T04:36:07.311Z,2.28
2022-08-23T04:38:33.804Z,1.48
2022-08-23T04:41:18.950Z,1.88
2022-08-23T04:43:45.513Z,2.58
2022-08-23T04:46:16.316Z,2.50
2022-08-23T04:48:43.569Z,2.87
2022-08-23T04:51:10.675Z,2.55
2022-08-23T04:53:37.691Z,2.35
2022-08-23T04:56:05.449Z,2.42
2022-08-23T04:58:33.559Z,2.35
2022-08-23T05:01:01.919Z,2.33
2022-08-23T05:03:29.780Z,2.40
2022-08-23T05:05:58.074Z,2.00
2022-08-23T05:08:25.697Z,2.40
2022-08-23T05:10:52.455Z,2.40
2022-08-23T05:13:19.066Z,2.40
2022-08-23T05:15:45.987Z,2.38
2022-08-23T05:18:12.931Z,2.28
2022-08-23T05:20:39.452Z,2.30
2022-08-23T05:23:06.021Z,2.10
2022-08-23T05:25:53.054Z,2.33
2022-08-23T05:28:32.712Z,1.95
2022-08-23T05:31:24.097Z,2.30
2022-08-23T05:33:51.571Z,2.25
2022-08-23T05:36:20.262Z,2.30
2022-08-23T05:38:47.231Z,2.13
2022-08-23T05:41:14.564Z,2.25
2022-08-23T05:43:41.119Z,1.73
2022-08-23T05:46:14.326Z,1.90
2022-08-23T05:48:46.920Z,1.90
2022-08-23T05:51:16.420Z,1.92
2022-08-23T05:53:44.631Z,2.08
2022-08-23T05:56:25.342Z,1.95
2022-08-23T05:58:59.157Z,2.00
2022-08-23T06:01:27.851Z,1.88
2022-08-23T06:03:54.569Z,2.10
2022-08-23T06:06:21.426Z,2.05
2022-08-23T06:08:48.923Z,2.13
2022-08-23T06:11:19.506Z,1.77
2022-08-23T06:13:50.784Z,1.90
2022-08-23T06:16:23.902Z,1.98
2022-08-23T06:18:51.999Z,1.90
2022-08-23T06:21:19.079Z,1.88
2022-08-23T06:23:47.735Z,1.95
2022-08-23T06:26:15.909Z,1.98
2022-08-23T06:28:50.743Z,2.25
2022-08-23T06:31:41.162Z,1.85
2022-08-23T06:34:15.008Z,1.77
2022-08-23T06:36:42.213Z,1.90
2022-08-23T06:39:10.935Z,2.30
2022-08-23T06:41:38.094Z,1.95
2022-08-23T06:44:05.098Z,2.00
2022-08-23T06:46:32.872Z,2.13
2022-08-23T06:49:05.183Z,2.03
2022-08-23T06:51:33.511Z,2.20
2022-08-23T06:54:04.841Z,2.15
2022-08-23T06:56:31.556Z,2.00
2022-08-23T06:58:58.269Z,2.15
2022-08-23T07:01:47.785Z,1.98
2022-08-23T07:04:17.996Z,2.00
2022-08-23T07:06:44.869Z,1.70
2022-08-23T07:09:12.282Z,2.15
2022-08-23T07:11:39.443Z,2.22
2022-08-23T07:14:10.388Z,2.22
2022-08-23T07:16:48.095Z,2.00
2022-08-23T07:19:15.223Z,1.90
2022-08-23T07:21:43.339Z,1.95
2022-08-23T07:24:13.596Z,1.90
2022-08-23T07:26:41.323Z,2.00
2022-08-23T07:29:09.634Z,1.75
2022-08-23T07:31:41.364Z,1.92
2022-08-23T07:34:08.744Z,1.77
2022-08-23T07:36:36.333Z,1.67
2022-08-23T07:39:05.982Z,1.75
2022-08-23T07:41:33.530Z,2.13
2022-08-23T07:44:02.423Z,2.33
2022-08-23T07:46:31.065Z,2.13
2022-08-23T07:48:59.646Z,2.00
2022-08-23T07:51:28.307Z,2.05
2022-08-23T07:53:54.955Z,2.05
2022-08-23T07:56:22.758Z,1.65
2022-08-23T07:58:50.185Z,1.73
2022-08-23T08:01:20.372Z,2.00
2022-08-23T08:03:50.163Z,1.63
2022-08-23T08:06:19.899Z,2.22
2022-08-23T08:08:46.634Z,2.00
2022-08-23T08:11:16.488Z,1.90
2022-08-23T08:13:45.365Z,1.80
2022-08-23T08:16:25.308Z,1.85
2022-08-23T08:18:54.054Z,1.80
2022-08-23T08:21:20.648Z,2.33
2022-08-23T08:23:47.178Z,1.80
2022-08-23T08:26:14.639Z,2.55
2022-08-23T08:28:41.223Z,2.05
2022-08-23T08:31:09.181Z,1.77
2022-08-23T08:33:36.211Z,1.52
2022-08-23T08:36:04.915Z,2.28
2022-08-23T08:38:32.771Z,2.45
2022-08-23T08:41:16.643Z,2.03
2022-08-23T08:43:57.849Z,1.98
2022-08-23T08:46:41.504Z,2.20
2022-08-23T08:49:18.309Z,2.13
2022-08-23T08:51:48.700Z,1.90
2022-08-23T08:54:18.704Z,2.08
2022-08-23T08:56:49.707Z,2.13
2022-08-23T08:59:22.246Z,2.40
2022-08-23T09:01:49.414Z,2.10
2022-08-23T09:04:16.227Z,2.28
2022-08-23T09:07:03.148Z,1.80
2022-08-23T09:09:48.048Z,2.20
2022-08-23T09:12:37.800Z,1.70
2022-08-23T09:15:14.274Z,2.13
2022-08-23T09:17:48.349Z,2.13
2022-08-23T09:20:19.390Z,2.00
2022-08-23T09:22:48.642Z,1.90
2022-08-23T09:25:17.009Z,2.10
2022-08-23T09:27:45.695Z,1.80
2022-08-23T09:30:15.196Z,1.90
2022-08-23T09:32:44.357Z,1.95
2022-08-23T09:35:24.140Z,2.15
2022-08-23T09:38:17.359Z,1.95
2022-08-23T09:40:46.120Z,2.20
2022-08-23T09:43:22.079Z,2.25
2022-08-23T09:45:48.570Z,2.00
2022-08-23T09:48:33.208Z,2.05
2022-08-23T09:51:16.860Z,1.90
2022-08-23T09:53:50.639Z,2.10
2022-08-23T09:56:24.548Z,1.63
2022-08-23T09:58:53.899Z,1.80
2022-08-23T10:01:22.195Z,1.92
2022-08-23T10:04:14.480Z,2.20
2022-08-23T10:06:45.460Z,2.33
2022-08-23T10:09:30.394Z,2.08
2022-08-23T10:11:59.211Z,1.98
2022-08-23T10:14:30.735Z,2.42
2022-08-23T10:17:10.287Z,2.25
2022-08-23T10:19:48.874Z,1.98
2022-08-23T10:22:26.602Z,2.17
2022-08-23T10:25:07.840Z,2.63
2022-08-23T10:28:25.228Z,1.77
2022-08-23T10:31:25.863Z,1.92
2022-08-23T10:34:21.362Z,1.80
2022-08-23T10:36:54.335Z,1.85
2022-08-23T10:39:29.735Z,2.40
2022-08-23T10:42:05.696Z,1.80
2022-08-23T10:44:39.290Z,1.80
2022-08-23T10:47:37.347Z,1.70
2022-08-23T10:50:09.135Z,1.50
2022-08-23T10:52:52.852Z,1.70
2022-08-23T10:55:54.796Z,1.77
2022-08-23T10:58:29.257Z,2.20
2022-08-23T11:00:58.796Z,1.60
2022-08-23T11:03:29.862Z,1.67
2022-08-23T11:06:26.016Z,1.83
2022-08-23T11:09:19.261Z,1.75
2022-08-23T11:12:11.103Z,1.95
2022-08-23T11:14:45.672Z,1.60
2022-08-23T11:17:43.422Z,1.65
2022-08-23T11:20:13.183Z,1.40
2022-08-23T11:22:57.804Z,1.50
2022-08-23T11:25:24.257Z,1.48
2022-08-23T11:27:50.928Z,1.65
2022-08-23T11:30:32.772Z,1.60
2022-08-23T11:33:14.567Z,1.60
2022-08-23T11:35:51.569Z,1.60
2022-08-23T11:38:46.991Z,1.52
2022-08-23T11:41:19.810Z,1.70
2022-08-23T11:44:10.702Z,1.65
2022-08-23T11:46:57.841Z,1.50
2022-08-23T11:49:30.551Z,1.55
2022-08-23T11:52:20.735Z,1.40
2022-08-23T11:55:01.967Z,1.63
2022-08-23T11:57:48.204Z,1.60
2022-08-23T12:00:29.089Z,1.40
2022-08-23T12:03:18.132Z,1.70
2022-08-23T12:05:50.655Z,1.60
2022-08-23T12:08:20.624Z,1.70
2022-08-23T12:10:47.298Z,1.60
2022-08-23T12:13:19.803Z,1.45
2022-08-23T12:16:16.249Z,1.58
2022-08-23T12:18:54.029Z,1.50
2022-08-23T12:21:22.330Z,1.67
2022-08-23T12:24:01.178Z,1.60
2022-08-23T12:26:38.271Z,1.42
2022-08-23T12:29:12.131Z,1.90
2022-08-23T12:31:42.785Z,1.40
2022-08-23T12:34:20.161Z,1.60
2022-08-23T12:37:09.502Z,1.60
2022-08-23T12:39:50.164Z,1.70
2022-08-23T12:42:24.641Z,1.63
2022-08-23T12:45:00.085Z,1.70
2022-08-23T12:47:27.278Z,1.70
2022-08-23T12:50:09.199Z,1.40
2022-08-23T12:52:37.129Z,2.25
2022-08-23T12:55:14.921Z,1.60
2022-08-23T12:57:44.762Z,1.70
2022-08-23T13:00:21.516Z,1.67
2022-08-23T13:02:57.514Z,1.73
2022-08-23T13:05:38.706Z,1.48
2022-08-23T13:08:12.458Z,1.63
2022-08-23T13:10:42.502Z,1.58
2022-08-23T13:13:16.163Z,1.50
2022-08-23T13:15:52.021Z,1.40
2022-08-23T13:18:45.895Z,1.60
2022-08-23T13:21:31.986Z,1.40
2022-08-23T13:24:29.985Z,1.77
2022-08-23T13:27:27.159Z,1.42
2022-08-23T13:30:23.728Z,1.50
2022-08-23T13:32:53.142Z,1.40
2022-08-23T13:35:25.724Z,1.40
2022-08-23T13:37:55.613Z,1.65
2022-08-23T13:40:25.942Z,1.77
2022-08-23T13:43:09.935Z,1.42
2022-08-23T13:45:45.775Z,1.48
2022-08-23T13:48:33.629Z,1.38
2022-08-23T13:51:20.057Z,1.35
2022-08-23T13:53:47.143Z,1.45
2022-08-23T13:56:14.802Z,1.50
2022-08-23T13:58:41.369Z,1.80
2022-08-23T14:01:17.889Z,1.33
2022-08-23T14:03:45.368Z,1.25
2022-08-23T14:06:12.163Z,1.55
2022-08-23T14:08:38.709Z,1.60
2022-08-23T14:11:05.347Z,1.60
2022-08-23T14:13:32.846Z,1.65
2022-08-23T14:21:39.365Z,1.50
2022-08-23T14:24:06.156Z,1.60
2022-08-23T14:26:32.940Z,1.27
2022-08-23T14:28:59.471Z,1.38
2022-08-23T14:31:26.165Z,1.40
2022-08-23T14:33:52.748Z,1.27
2022-08-23T14:36:19.296Z,1.40
2022-08-23T14:38:50.632Z,1.30
2022-08-23T14:41:22.708Z,1.40
2022-08-23T14:43:50.203Z,1.40
2022-08-23T14:46:17.060Z,1.50
2022-08-23T14:48:43.837Z,1.63
2022-08-23T14:51:24.955Z,1.20
2022-08-23T14:53:52.125Z,1.30
2022-08-23T14:56:21.734Z,1.45
2022-08-23T14:58:50.044Z,1.85
2022-08-23T15:01:17.353Z,1.30
2022-08-23T15:03:44.263Z,1.40
2022-08-23T15:06:12.923Z,1.60
2022-08-23T15:08:40.778Z,1.63
2022-08-23T15:13:56.786Z,1.52
2022-08-23T15:16:26.965Z,1.60
2022-08-23T15:18:54.803Z,1.65
2022-08-23T15:21:22.188Z,1.50
2022-08-23T15:23:49.570Z,1.50
2022-08-23T15:26:20.260Z,1.63
2022-08-23T15:28:47.169Z,1.70
2022-08-23T15:31:15.905Z,1.80
2022-08-23T15:33:42.698Z,1.30
2022-08-23T15:36:12.159Z,1.50
2022-08-23T15:41:07.664Z,1.27
2022-08-23T15:43:39.500Z,1.30
2022-08-23T15:46:13.042Z,1.27
2022-08-23T15:48:54.597Z,1.23
2022-08-23T15:51:21.303Z,1.60
2022-08-23T15:53:48.102Z,1.50
2022-08-23T15:56:46.905Z,1.40
2022-08-23T15:59:16.150Z,1.58
2022-08-23T16:01:43.563Z,1.17
2022-08-23T16:04:10.415Z,1.50
2022-08-23T16:06:39.334Z,1.23
2022-08-23T16:09:19.120Z,1.23
2022-08-23T16:11:45.640Z,1.55
2022-08-23T16:14:12.521Z,1.17
2022-08-23T16:16:40.536Z,1.25
2022-08-23T16:19:08.935Z,1.13
2022-08-23T16:21:36.062Z,1.25
2022-08-23T16:24:02.967Z,1.20
2022-08-23T16:26:35.041Z,1.00
2022-08-23T16:29:07.459Z,1.00
2022-08-23T16:31:37.425Z,1.10
2022-08-23T16:34:09.255Z,0.90
2022-08-23T16:36:36.057Z,1.30
2022-08-23T16:39:03.516Z,0.93
2022-08-23T16:41:30.037Z,0.93
2022-08-23T16:43:56.563Z,0.90
2022-08-23T16:46:24.094Z,1.20
2022-08-23T16:48:50.728Z,0.90
2022-08-23T16:51:17.883Z,1.38
2022-08-23T16:53:44.842Z,1.10
2022-08-23T16:56:24.506Z,0.80
2022-08-23T16:58:51.128Z,1.10
2022-08-23T17:01:19.796Z,1.00
2022-08-23T17:03:46.565Z,1.00
2022-08-23T17:06:13.348Z,1.08
2022-08-23T17:08:41.099Z,1.08
2022-08-23T17:11:13.103Z,1.10
2022-08-23T17:13:40.795Z,0.90
2022-08-23T17:16:07.827Z,0.90
2022-08-23T17:18:34.492Z,1.17
2022-08-23T17:21:01.065Z,1.20
2022-08-23T17:23:28.419Z,1.20
2022-08-23T17:25:54.915Z,1.20
2022-08-23T17:28:22.981Z,1.20
2022-08-23T17:30:50.023Z,1.08
2022-08-23T17:33:16.484Z,1.50
2022-08-23T17:35:43.423Z,1.08
2022-08-23T17:38:09.932Z,1.08
2022-08-23T17:40:39.035Z,1.00
2022-08-23T17:43:07.406Z,1.30
2022-08-23T17:45:44.990Z,1.10
2022-08-23T17:48:12.706Z,1.20
2022-08-23T17:50:39.698Z,1.20
2022-08-23T17:53:06.770Z,1.20
2022-08-23T17:55:35.856Z,1.10
2022-08-23T17:58:06.221Z,1.20
2022-08-23T18:00:35.430Z,1.25
2022-08-23T18:03:02.196Z,1.40
2022-08-23T18:05:33.225Z,1.38
2022-08-23T18:08:00.665Z,1.10
2022-08-23T18:10:29.782Z,1.73
2022-08-23T18:12:57.268Z,1.35
2022-08-23T18:15:24.246Z,1.17
2022-08-23T18:17:51.639Z,1.30
2022-08-23T18:20:23.156Z,1.50
2022-08-23T18:22:49.757Z,1.38
2022-08-23T18:25:17.025Z,1.67
2022-08-23T18:28:03.047Z,1.40
2022-08-23T18:30:29.854Z,1.55
2022-08-23T18:32:57.568Z,1.52
2022-08-23T18:35:30.540Z,1.48
2022-08-23T18:37:58.116Z,2.08
2022-08-23T18:40:27.234Z,1.35
2022-08-23T18:42:54.964Z,1.80
2022-08-23T18:45:22.051Z,1.58
2022-08-23T18:47:49.051Z,1.50
2022-08-23T18:50:16.410Z,2.50
2022-08-23T18:52:43.411Z,3.55
2022-08-23T18:55:10.079Z,3.30
2022-08-23T18:57:36.679Z,3.08
2022-08-23T19:00:05.171Z,2.55
2022-08-23T19:02:33.961Z,1.80
2022-08-23T19:05:02.826Z,2.40
2022-08-23T19:07:29.396Z,1.88
2022-08-23T19:09:56.262Z,2.00
2022-08-23T19:12:22.898Z,2.75
2022-08-23T19:14:49.476Z,1.80
2022-08-23T19:17:16.074Z,1.52
2022-08-23T19:19:42.632Z,1.70
2022-08-23T19:22:09.185Z,1.30
2022-08-23T19:24:35.741Z,1.60
2022-08-23T19:27:02.293Z,1.70
2022-08-23T19:29:28.848Z,1.30
2022-08-23T19:31:55.474Z,1.48
2022-08-23T19:34:22.863Z,1.63
2022-08-23T19:36:58.936Z,2.20
2022-08-23T19:39:28.277Z,1.55
2022-08-23T19:41:55.201Z,1.27
2022-08-23T19:44:22.659Z,1.35
2022-08-23T19:46:49.563Z,1.50
2022-08-23T19:49:16.561Z,1.40
2022-08-23T19:51:44.112Z,1.48
2022-08-23T19:54:12.654Z,1.42
2022-08-23T19:56:46.762Z,1.50
2022-08-23T19:59:20.187Z,1.50
2022-08-23T20:01:47.966Z,1.35
2022-08-23T20:04:14.513Z,1.38
2022-08-23T20:06:42.069Z,1.67
2022-08-23T20:09:08.757Z,1.60
2022-08-23T20:11:35.800Z,1.52
2022-08-23T20:14:04.889Z,1.48
2022-08-23T20:16:32.731Z,1.70
2022-08-23T20:19:00.172Z,1.52
2022-08-23T20:21:27.596Z,1.70
2022-08-23T20:24:01.450Z,1.35
2022-08-23T20:26:30.340Z,1.70
2022-08-23T20:28:59.796Z,1.60
2022-08-23T20:31:30.410Z,1.63
2022-08-23T20:33:57.033Z,1.55
2022-08-23T20:36:24.743Z,1.70
2022-08-23T20:38:51.452Z,1.70
2022-08-23T20:41:18.013Z,1.98
2022-08-23T20:43:48.953Z,1.73
2022-08-23T20:46:15.744Z,1.95
2022-08-23T20:48:42.494Z,1.80
2022-08-23T20:51:09.287Z,1.50
2022-08-23T20:53:38.187Z,2.03
2022-08-23T20:56:05.657Z,1.90
2022-08-23T20:58:32.856Z,1.50
2022-08-23T21:00:59.424Z,1.70
2022-08-23T21:03:26.111Z,1.60
2022-08-23T21:06:02.291Z,1.60
2022-08-23T21:08:30.786Z,2.20
2022-08-23T21:10:57.637Z,2.22
2022-08-23T21:13:24.381Z,1.60
2022-08-23T21:15:50.974Z,1.83
2022-08-23T21:18:17.816Z,1.95
2022-08-23T21:20:44.561Z,2.00
2022-08-23T21:23:11.088Z,2.13
2022-08-23T21:25:37.644Z,1.70
2022-08-23T21:28:04.543Z,1.90
2022-08-23T21:30:31.429Z,1.65
2022-08-23T21:32:58.647Z,2.00
2022-08-23T21:35:25.426Z,1.80
2022-08-23T21:37:51.931Z,1.60
2022-08-23T21:40:18.705Z,1.52
2022-08-23T21:42:48.171Z,1.77
2022-08-23T21:45:14.698Z,1.80
2022-08-23T21:47:41.373Z,1.90
2022-08-23T21:50:08.308Z,1.80
2022-08-23T21:52:34.762Z,1.80
2022-08-23T21:55:01.742Z,1.95
2022-08-23T21:57:28.984Z,1.80
2022-08-23T21:59:55.536Z,1.80
2022-08-23T22:02:22.167Z,1.75
2022-08-23T22:04:48.788Z,1.85
2022-08-23T22:07:15.479Z,1.50
2022-08-23T22:09:41.984Z,1.33
2022-08-23T22:12:09.576Z,1.63
2022-08-23T22:14:36.466Z,1.48
2022-08-23T22:17:05.169Z,1.58
2022-08-23T22:19:31.827Z,1.40
2022-08-23T22:21:58.655Z,1.30
2022-08-23T22:24:26.354Z,1.58
2022-08-23T22:26:54.511Z,1.90
2022-08-23T22:29:21.415Z,1.90
2022-08-23T22:31:48.562Z,1.77
2022-08-23T22:34:15.206Z,1.77
2022-08-23T22:36:42.069Z,1.88
2022-08-23T22:39:08.608Z,1.80
2022-08-23T22:41:35.307Z,1.70
2022-08-23T22:44:03.272Z,1.60
2022-08-23T22:46:33.718Z,1.95
2022-08-23T22:49:00.603Z,1.40
2022-08-23T22:51:30.971Z,1.50
2022-08-23T22:54:02.968Z,1.80
2022-08-23T22:56:33.100Z,1.67
2022-08-23T22:59:00.121Z,2.08
2022-08-23T23:01:33.285Z,1.40
2022-08-23T23:04:02.313Z,1.60
2022-08-23T23:06:29.087Z,1.60
2022-08-23T23:08:56.268Z,1.83
2022-08-23T23:11:23.713Z,1.70
2022-08-23T23:13:50.710Z,1.80
2022-08-23T23:16:22.312Z,1.58
2022-08-23T23:21:54.651Z,1.67
2022-08-23T23:24:25.552Z,1.67
2022-08-23T23:26:52.442Z,1.45
2022-08-23T23:29:19.250Z,1.50
2022-08-23T23:31:46.025Z,1.80
2022-08-23T23:34:13.529Z,1.80
2022-08-23T23:36:41.074Z,2.00
2022-08-23T23:39:09.907Z,1.92
2022-08-23T23:41:36.557Z,1.75
2022-08-23T23:44:03.486Z,1.80
2022-08-23T23:46:30.249Z,1.77
2022-08-23T23:48:56.819Z,1.83
2022-08-23T23:51:26.830Z,1.70
2022-08-23T23:53:54.275Z,1.60
2022-08-23T23:56:23.965Z,1.60
2022-08-23T23:58:54.614Z,1.75
